sensor_id;sensor_type;location;lat;lon;timestamp;temperature;humidity
26947;DHT22;14501;52.282;10.560;2023-07-16T00:01:09;21.20;99.90
26947;DHT22;14501;52.282;10.560;2023-07-16T00:03:34;21.20;99.90
26947;DHT22;14501;52.282;10.560;2023-07-16T00:06:00;21.20;99.90
26947;DHT22;14501;52.282;10.560;2023-07-16T00:08:25;21.10;99.90
26947;DHT22;14501;52.282;10.560;2023-07-16T00:10:51;21.00;99.90
26947;DHT22;14501;52.282;10.560;2023-07-16T00:13:17;21.00;99.90
26947;DHT22;14501;52.282;10.560;2023-07-16T00:15:42;20.90;99.90
26947;DHT22;14501;52.282;10.560;2023-07-16T00:20:34;20.80;99.90
26947;DHT22;14501;52.282;10.560;2023-07-16T00:22:59;20.90;99.90
26947;DHT22;14501;52.282;10.560;2023-07-16T00:25:25;20.80;99.90
26947;DHT22;14501;52.282;10.560;2023-07-16T00:31:03;20.80;99.90
26947;DHT22;14501;52.282;10.560;2023-07-16T00:33:28;20.80;99.90
26947;DHT22;14501;52.282;10.560;2023-07-16T00:35:54;20.80;99.90
26947;DHT22;14501;52.282;10.560;2023-07-16T00:38:19;20.80;99.90
26947;DHT22;14501;52.282;10.560;2023-07-16T00:40:46;20.90;99.90
26947;DHT22;14501;52.282;10.560;2023-07-16T00:43:11;20.90;99.90
26947;DHT22;14501;52.282;10.560;2023-07-16T00:45:38;21.00;99.90
26947;DHT22;14501;52.282;10.560;2023-07-16T00:48:06;21.00;99.90
26947;DHT22;14501;52.282;10.560;2023-07-16T00:50:32;21.00;99.90
26947;DHT22;14501;52.282;10.560;2023-07-16T00:53:00;21.00;99.90
26947;DHT22;14501;52.282;10.560;2023-07-16T00:55:28;21.00;99.90
26947;DHT22;14501;52.282;10.560;2023-07-16T00:57:55;21.10;99.90
26947;DHT22;14501;52.282;10.560;2023-07-16T01:00:23;21.10;99.90
26947;DHT22;14501;52.282;10.560;2023-07-16T01:04:24;21.10;99.90
26947;DHT22;14501;52.282;10.560;2023-07-16T01:06:55;21.10;99.90
26947;DHT22;14501;52.282;10.560;2023-07-16T01:09:23;21.10;99.90
26947;DHT22;14501;52.282;10.560;2023-07-16T01:11:50;21.10;99.90
26947;DHT22;14501;52.282;10.560;2023-07-16T01:14:17;21.10;99.90
26947;DHT22;14501;52.282;10.560;2023-07-16T01:16:44;21.10;99.90
26947;DHT22;14501;52.282;10.560;2023-07-16T01:19:10;21.10;99.90
26947;DHT22;14501;52.282;10.560;2023-07-16T01:30:04;21.00;99.90
26947;DHT22;14501;52.282;10.560;2023-07-16T01:32:33;21.00;99.90
26947;DHT22;14501;52.282;10.560;2023-07-16T01:34:59;21.00;99.90
26947;DHT22;14501;52.282;10.560;2023-07-16T01:37:25;21.00;99.90
26947;DHT22;14501;52.282;10.560;2023-07-16T01:39:51;21.00;99.90
26947;DHT22;14501;52.282;10.560;2023-07-16T01:42:17;21.00;99.90
26947;DHT22;14501;52.282;10.560;2023-07-16T01:44:42;21.00;99.90
26947;DHT22;14501;52.282;10.560;2023-07-16T01:47:11;21.00;99.90
26947;DHT22;14501;52.282;10.560;2023-07-16T01:49:40;20.90;99.90
26947;DHT22;14501;52.282;10.560;2023-07-16T01:52:08;20.90;99.90
26947;DHT22;14501;52.282;10.560;2023-07-16T01:54:34;20.90;99.90
26947;DHT22;14501;52.282;10.560;2023-07-16T01:57:00;20.90;99.90
26947;DHT22;14501;52.282;10.560;2023-07-16T01:59:26;20.90;99.90
26947;DHT22;14501;52.282;10.560;2023-07-16T02:01:52;20.80;99.90
26947;DHT22;14501;52.282;10.560;2023-07-16T02:04:18;20.90;99.90
26947;DHT22;14501;52.282;10.560;2023-07-16T02:06:43;20.80;99.90
26947;DHT22;14501;52.282;10.560;2023-07-16T02:09:10;20.70;99.90
26947;DHT22;14501;52.282;10.560;2023-07-16T02:11:35;20.70;99.90
26947;DHT22;14501;52.282;10.560;2023-07-16T02:14:01;20.60;99.90
26947;DHT22;14501;52.282;10.560;2023-07-16T02:16:27;20.60;99.90
26947;DHT22;14501;52.282;10.560;2023-07-16T02:18:53;20.60;99.90
26947;DHT22;14501;52.282;10.560;2023-07-16T02:21:18;20.50;99.90
26947;DHT22;14501;52.282;10.560;2023-07-16T02:23:44;20.60;99.90
26947;DHT22;14501;52.282;10.560;2023-07-16T02:26:09;20.50;99.90
26947;DHT22;14501;52.282;10.560;2023-07-16T02:28:35;20.50;99.90
26947;DHT22;14501;52.282;10.560;2023-07-16T02:31:01;20.40;99.90
26947;DHT22;14501;52.282;10.560;2023-07-16T02:33:27;20.40;99.90
26947;DHT22;14501;52.282;10.560;2023-07-16T02:38:18;20.40;99.90
26947;DHT22;14501;52.282;10.560;2023-07-16T02:40:45;20.30;99.90
26947;DHT22;14501;52.282;10.560;2023-07-16T02:43:11;20.30;99.90
26947;DHT22;14501;52.282;10.560;2023-07-16T02:45:37;20.30;99.90
26947;DHT22;14501;52.282;10.560;2023-07-16T02:48:05;20.30;99.90
26947;DHT22;14501;52.282;10.560;2023-07-16T02:50:33;20.30;99.90
26947;DHT22;14501;52.282;10.560;2023-07-16T02:52:59;20.20;99.90
26947;DHT22;14501;52.282;10.560;2023-07-16T02:55:24;20.20;99.90
26947;DHT22;14501;52.282;10.560;2023-07-16T02:57:50;19.90;99.90
26947;DHT22;14501;52.282;10.560;2023-07-16T03:00:15;19.50;99.90
26947;DHT22;14501;52.282;10.560;2023-07-16T03:02:41;19.40;99.90
26947;DHT22;14501;52.282;10.560;2023-07-16T03:05:07;19.20;99.90
26947;DHT22;14501;52.282;10.560;2023-07-16T03:07:32;19.10;99.90
26947;DHT22;14501;52.282;10.560;2023-07-16T03:09:58;18.90;99.90
26947;DHT22;14501;52.282;10.560;2023-07-16T03:12:24;18.80;99.90
26947;DHT22;14501;52.282;10.560;2023-07-16T03:14:50;18.70;99.90
26947;DHT22;14501;52.282;10.560;2023-07-16T03:17:16;18.70;99.90
26947;DHT22;14501;52.282;10.560;2023-07-16T03:19:42;18.60;99.90
26947;DHT22;14501;52.282;10.560;2023-07-16T03:22:07;18.50;99.90
26947;DHT22;14501;52.282;10.560;2023-07-16T03:24:33;18.50;99.90
26947;DHT22;14501;52.282;10.560;2023-07-16T03:26:59;18.40;99.90
26947;DHT22;14501;52.282;10.560;2023-07-16T03:29:25;18.30;99.90
26947;DHT22;14501;52.282;10.560;2023-07-16T03:31:51;18.20;99.90
26947;DHT22;14501;52.282;10.560;2023-07-16T03:34:16;18.20;99.90
26947;DHT22;14501;52.282;10.560;2023-07-16T03:36:42;18.20;99.90
26947;DHT22;14501;52.282;10.560;2023-07-16T03:39:07;18.20;99.90
26947;DHT22;14501;52.282;10.560;2023-07-16T03:41:34;18.20;99.90
26947;DHT22;14501;52.282;10.560;2023-07-16T03:44:00;18.20;99.90
26947;DHT22;14501;52.282;10.560;2023-07-16T03:46:25;18.20;99.90
26947;DHT22;14501;52.282;10.560;2023-07-16T03:48:53;18.20;99.90
26947;DHT22;14501;52.282;10.560;2023-07-16T03:51:19;18.20;99.90
26947;DHT22;14501;52.282;10.560;2023-07-16T03:53:44;18.30;99.90
26947;DHT22;14501;52.282;10.560;2023-07-16T03:56:10;18.30;99.90
26947;DHT22;14501;52.282;10.560;2023-07-16T03:58:35;18.30;99.90
26947;DHT22;14501;52.282;10.560;2023-07-16T04:01:01;18.20;99.90
26947;DHT22;14501;52.282;10.560;2023-07-16T04:03:27;18.30;99.90
26947;DHT22;14501;52.282;10.560;2023-07-16T04:10:44;18.30;99.90
26947;DHT22;14501;52.282;10.560;2023-07-16T04:13:10;18.40;99.90
26947;DHT22;14501;52.282;10.560;2023-07-16T04:15:35;18.40;99.90
26947;DHT22;14501;52.282;10.560;2023-07-16T04:18:01;18.40;99.90
26947;DHT22;14501;52.282;10.560;2023-07-16T04:20:27;18.50;99.90
26947;DHT22;14501;52.282;10.560;2023-07-16T04:22:54;18.50;99.90
26947;DHT22;14501;52.282;10.560;2023-07-16T04:25:19;18.50;99.90
26947;DHT22;14501;52.282;10.560;2023-07-16T04:27:45;18.60;99.90
26947;DHT22;14501;52.282;10.560;2023-07-16T04:30:11;18.70;99.90
26947;DHT22;14501;52.282;10.560;2023-07-16T04:32:36;18.70;99.90
26947;DHT22;14501;52.282;10.560;2023-07-16T04:35:02;18.70;99.90
26947;DHT22;14501;52.282;10.560;2023-07-16T04:37:28;18.80;99.90
26947;DHT22;14501;52.282;10.560;2023-07-16T04:39:54;18.70;99.90
26947;DHT22;14501;52.282;10.560;2023-07-16T04:42:19;18.70;99.90
26947;DHT22;14501;52.282;10.560;2023-07-16T04:44:46;18.70;99.90
26947;DHT22;14501;52.282;10.560;2023-07-16T04:47:11;18.60;99.90
26947;DHT22;14501;52.282;10.560;2023-07-16T04:49:37;18.70;99.90
26947;DHT22;14501;52.282;10.560;2023-07-16T04:52:03;18.70;99.90
26947;DHT22;14501;52.282;10.560;2023-07-16T04:54:28;18.70;99.90
26947;DHT22;14501;52.282;10.560;2023-07-16T04:56:54;18.70;99.90
26947;DHT22;14501;52.282;10.560;2023-07-16T04:59:19;18.80;99.90
26947;DHT22;14501;52.282;10.560;2023-07-16T05:01:45;18.80;99.90
26947;DHT22;14501;52.282;10.560;2023-07-16T05:04:11;18.80;99.90
26947;DHT22;14501;52.282;10.560;2023-07-16T05:06:36;18.80;99.90
26947;DHT22;14501;52.282;10.560;2023-07-16T05:09:02;18.80;99.90
26947;DHT22;14501;52.282;10.560;2023-07-16T05:11:27;18.80;99.90
26947;DHT22;14501;52.282;10.560;2023-07-16T05:13:53;18.80;99.90
26947;DHT22;14501;52.282;10.560;2023-07-16T05:16:19;18.80;99.90
26947;DHT22;14501;52.282;10.560;2023-07-16T05:18:44;18.80;99.90
26947;DHT22;14501;52.282;10.560;2023-07-16T05:21:10;18.80;99.90
26947;DHT22;14501;52.282;10.560;2023-07-16T05:23:35;18.90;99.90
26947;DHT22;14501;52.282;10.560;2023-07-16T05:26:01;18.90;99.90
26947;DHT22;14501;52.282;10.560;2023-07-16T05:28:26;18.90;99.90
26947;DHT22;14501;52.282;10.560;2023-07-16T05:30:59;19.10;99.90
26947;DHT22;14501;52.282;10.560;2023-07-16T05:33:25;19.00;99.90
26947;DHT22;14501;52.282;10.560;2023-07-16T05:35:51;19.00;99.90
26947;DHT22;14501;52.282;10.560;2023-07-16T05:38:16;19.00;99.90
26947;DHT22;14501;52.282;10.560;2023-07-16T05:40:42;19.00;99.90
26947;DHT22;14501;52.282;10.560;2023-07-16T05:43:08;19.00;99.90
26947;DHT22;14501;52.282;10.560;2023-07-16T05:45:34;19.10;99.90
26947;DHT22;14501;52.282;10.560;2023-07-16T05:47:59;19.20;99.90
26947;DHT22;14501;52.282;10.560;2023-07-16T05:50:25;19.40;99.90
26947;DHT22;14501;52.282;10.560;2023-07-16T05:52:50;19.50;99.90
26947;DHT22;14501;52.282;10.560;2023-07-16T05:55:17;19.80;99.90
26947;DHT22;14501;52.282;10.560;2023-07-16T05:57:42;20.60;99.90
26947;DHT22;14501;52.282;10.560;2023-07-16T06:00:08;23.70;99.90
26947;DHT22;14501;52.282;10.560;2023-07-16T06:02:34;25.40;99.90
26947;DHT22;14501;52.282;10.560;2023-07-16T06:05:00;28.80;99.90
26947;DHT22;14501;52.282;10.560;2023-07-16T06:07:25;31.50;99.90
26947;DHT22;14501;52.282;10.560;2023-07-16T06:09:51;33.40;99.90
26947;DHT22;14501;52.282;10.560;2023-07-16T06:12:16;35.50;98.70
26947;DHT22;14501;52.282;10.560;2023-07-16T06:14:42;36.70;94.20
26947;DHT22;14501;52.282;10.560;2023-07-16T06:17:08;38.20;91.30
26947;DHT22;14501;52.282;10.560;2023-07-16T06:19:34;38.90;89.70
26947;DHT22;14501;52.282;10.560;2023-07-16T06:21:59;39.70;84.30
26947;DHT22;14501;52.282;10.560;2023-07-16T06:24:25;40.60;79.50
26947;DHT22;14501;52.282;10.560;2023-07-16T06:26:51;41.20;76.80
26947;DHT22;14501;52.282;10.560;2023-07-16T06:29:16;41.60;72.00
26947;DHT22;14501;52.282;10.560;2023-07-16T06:31:57;41.90;69.30
26947;DHT22;14501;52.282;10.560;2023-07-16T06:34:23;42.00;70.00
26947;DHT22;14501;52.282;10.560;2023-07-16T06:36:49;42.10;68.70
26947;DHT22;14501;52.282;10.560;2023-07-16T06:39:15;42.20;68.60
26947;DHT22;14501;52.282;10.560;2023-07-16T06:41:40;42.00;68.50
26947;DHT22;14501;52.282;10.560;2023-07-16T06:44:06;42.60;65.90
26947;DHT22;14501;52.282;10.560;2023-07-16T06:46:31;42.60;66.60
26947;DHT22;14501;52.282;10.560;2023-07-16T06:48:57;43.30;64.90
26947;DHT22;14501;52.282;10.560;2023-07-16T06:51:23;43.30;65.60
26947;DHT22;14501;52.282;10.560;2023-07-16T06:53:48;43.50;66.20
26947;DHT22;14501;52.282;10.560;2023-07-16T06:56:14;43.70;66.20
26947;DHT22;14501;52.282;10.560;2023-07-16T06:58:40;44.00;64.80
26947;DHT22;14501;52.282;10.560;2023-07-16T07:01:06;43.70;61.10
26947;DHT22;14501;52.282;10.560;2023-07-16T07:03:31;43.50;63.60
26947;DHT22;14501;52.282;10.560;2023-07-16T07:06:01;44.10;63.20
26947;DHT22;14501;52.282;10.560;2023-07-16T07:08:27;44.40;63.80
26947;DHT22;14501;52.282;10.560;2023-07-16T07:10:53;44.00;60.70
26947;DHT22;14501;52.282;10.560;2023-07-16T07:13:19;43.40;60.10
26947;DHT22;14501;52.282;10.560;2023-07-16T07:15:44;42.90;61.70
26947;DHT22;14501;52.282;10.560;2023-07-16T07:18:10;43.40;62.60
26947;DHT22;14501;52.282;10.560;2023-07-16T07:20:35;44.60;59.30
26947;DHT22;14501;52.282;10.560;2023-07-16T07:23:01;44.30;58.00
26947;DHT22;14501;52.282;10.560;2023-07-16T07:25:29;44.00;59.90
26947;DHT22;14501;52.282;10.560;2023-07-16T07:27:54;43.90;58.80
26947;DHT22;14501;52.282;10.560;2023-07-16T07:30:20;43.10;59.10
26947;DHT22;14501;52.282;10.560;2023-07-16T07:32:46;41.80;63.60
26947;DHT22;14501;52.282;10.560;2023-07-16T07:35:11;39.80;62.10
26947;DHT22;14501;52.282;10.560;2023-07-16T07:37:37;37.70;65.30
26947;DHT22;14501;52.282;10.560;2023-07-16T07:40:03;37.70;64.80
26947;DHT22;14501;52.282;10.560;2023-07-16T07:42:29;39.20;66.00
26947;DHT22;14501;52.282;10.560;2023-07-16T07:44:55;40.40;64.30
26947;DHT22;14501;52.282;10.560;2023-07-16T07:47:21;41.70;63.00
26947;DHT22;14501;52.282;10.560;2023-07-16T07:49:46;41.70;58.70
26947;DHT22;14501;52.282;10.560;2023-07-16T07:52:12;41.70;58.80
26947;DHT22;14501;52.282;10.560;2023-07-16T07:54:38;42.00;58.10
26947;DHT22;14501;52.282;10.560;2023-07-16T07:57:04;43.00;57.70
26947;DHT22;14501;52.282;10.560;2023-07-16T07:59:30;43.30;57.50
26947;DHT22;14501;52.282;10.560;2023-07-16T08:01:57;44.00;58.00
26947;DHT22;14501;52.282;10.560;2023-07-16T08:04:23;44.50;54.80
26947;DHT22;14501;52.282;10.560;2023-07-16T08:06:50;44.40;53.90
26947;DHT22;14501;52.282;10.560;2023-07-16T08:09:15;44.30;54.40
26947;DHT22;14501;52.282;10.560;2023-07-16T08:11:41;43.30;53.50
26947;DHT22;14501;52.282;10.560;2023-07-16T08:14:07;43.00;54.60
26947;DHT22;14501;52.282;10.560;2023-07-16T08:16:32;42.60;54.40
26947;DHT22;14501;52.282;10.560;2023-07-16T08:18:58;42.10;53.60
26947;DHT22;14501;52.282;10.560;2023-07-16T08:21:24;42.10;52.60
26947;DHT22;14501;52.282;10.560;2023-07-16T08:23:49;42.00;54.50
26947;DHT22;14501;52.282;10.560;2023-07-16T08:26:15;42.60;53.50
26947;DHT22;14501;52.282;10.560;2023-07-16T08:28:41;42.90;52.90
26947;DHT22;14501;52.282;10.560;2023-07-16T08:31:07;43.00;53.00
26947;DHT22;14501;52.282;10.560;2023-07-16T08:33:32;43.40;52.70
26947;DHT22;14501;52.282;10.560;2023-07-16T08:35:58;42.40;52.60
26947;DHT22;14501;52.282;10.560;2023-07-16T08:38:23;42.40;52.30
26947;DHT22;14501;52.282;10.560;2023-07-16T08:40:49;42.20;54.10
26947;DHT22;14501;52.282;10.560;2023-07-16T08:43:16;42.10;54.50
26947;DHT22;14501;52.282;10.560;2023-07-16T08:45:42;42.00;54.00
26947;DHT22;14501;52.282;10.560;2023-07-16T08:48:10;41.80;53.80
26947;DHT22;14501;52.282;10.560;2023-07-16T08:50:37;42.00;54.70
26947;DHT22;14501;52.282;10.560;2023-07-16T08:53:06;40.50;53.50
26947;DHT22;14501;52.282;10.560;2023-07-16T08:55:32;38.00;57.10
26947;DHT22;14501;52.282;10.560;2023-07-16T08:57:58;37.40;58.90
26947;DHT22;14501;52.282;10.560;2023-07-16T09:00:26;38.20;60.80
26947;DHT22;14501;52.282;10.560;2023-07-16T09:02:52;38.20;57.70
26947;DHT22;14501;52.282;10.560;2023-07-16T09:05:22;36.00;59.70
26947;DHT22;14501;52.282;10.560;2023-07-16T09:07:48;35.30;65.30
26947;DHT22;14501;52.282;10.560;2023-07-16T09:10:13;37.10;63.40
26947;DHT22;14501;52.282;10.560;2023-07-16T09:12:43;38.20;60.10
26947;DHT22;14501;52.282;10.560;2023-07-16T09:15:10;38.90;57.60
26947;DHT22;14501;52.282;10.560;2023-07-16T09:17:36;40.30;56.10
26947;DHT22;14501;52.282;10.560;2023-07-16T09:20:04;40.80;56.70
26947;DHT22;14501;52.282;10.560;2023-07-16T09:22:31;41.50;54.60
26947;DHT22;14501;52.282;10.560;2023-07-16T09:24:56;41.50;55.70
26947;DHT22;14501;52.282;10.560;2023-07-16T09:27:28;42.50;55.10
26947;DHT22;14501;52.282;10.560;2023-07-16T09:29:54;43.00;55.00
26947;DHT22;14501;52.282;10.560;2023-07-16T09:32:20;43.80;53.20
26947;DHT22;14501;52.282;10.560;2023-07-16T09:34:49;44.60;51.30
26947;DHT22;14501;52.282;10.560;2023-07-16T09:37:17;44.40;51.40
26947;DHT22;14501;52.282;10.560;2023-07-16T09:39:45;44.20;51.60
26947;DHT22;14501;52.282;10.560;2023-07-16T09:44:38;43.70;53.70
26947;DHT22;14501;52.282;10.560;2023-07-16T09:47:05;43.30;51.10
26947;DHT22;14501;52.282;10.560;2023-07-16T09:49:31;42.90;52.00
26947;DHT22;14501;52.282;10.560;2023-07-16T09:51:57;43.60;54.00
26947;DHT22;14501;52.282;10.560;2023-07-16T09:54:25;43.60;54.50
26947;DHT22;14501;52.282;10.560;2023-07-16T09:56:56;42.70;51.30
26947;DHT22;14501;52.282;10.560;2023-07-16T09:59:28;42.70;52.00
26947;DHT22;14501;52.282;10.560;2023-07-16T10:01:55;41.50;53.10
26947;DHT22;14501;52.282;10.560;2023-07-16T10:04:21;41.50;54.00
26947;DHT22;14501;52.282;10.560;2023-07-16T10:07:00;41.90;52.60
26947;DHT22;14501;52.282;10.560;2023-07-16T10:09:41;41.90;52.50
26947;DHT22;14501;52.282;10.560;2023-07-16T10:14:55;43.70;49.70
26947;DHT22;14501;52.282;10.560;2023-07-16T10:17:30;43.60;50.60
26947;DHT22;14501;52.282;10.560;2023-07-16T10:22:37;42.10;50.50
26947;DHT22;14501;52.282;10.560;2023-07-16T10:25:29;41.40;52.30
26947;DHT22;14501;52.282;10.560;2023-07-16T10:27:55;37.10;54.30
26947;DHT22;14501;52.282;10.560;2023-07-16T10:30:21;36.00;59.20
26947;DHT22;14501;52.282;10.560;2023-07-16T10:32:47;36.00;58.20
26947;DHT22;14501;52.282;10.560;2023-07-16T10:35:13;36.80;58.00
26947;DHT22;14501;52.282;10.560;2023-07-16T10:37:39;38.20;55.00
26947;DHT22;14501;52.282;10.560;2023-07-16T10:40:10;38.20;53.80
26947;DHT22;14501;52.282;10.560;2023-07-16T10:42:36;37.90;54.90
26947;DHT22;14501;52.282;10.560;2023-07-16T10:45:04;37.70;55.00
26947;DHT22;14501;52.282;10.560;2023-07-16T10:47:38;35.80;58.10
26947;DHT22;14501;52.282;10.560;2023-07-16T10:50:06;35.80;58.40
26947;DHT22;14501;52.282;10.560;2023-07-16T10:52:33;34.70;60.70
26947;DHT22;14501;52.282;10.560;2023-07-16T10:54:59;34.70;61.80
26947;DHT22;14501;52.282;10.560;2023-07-16T10:59:52;33.90;63.40
26947;DHT22;14501;52.282;10.560;2023-07-16T11:02:18;33.80;62.30
26947;DHT22;14501;52.282;10.560;2023-07-16T11:04:45;33.30;64.80
26947;DHT22;14501;52.282;10.560;2023-07-16T11:07:12;33.30;61.60
26947;DHT22;14501;52.282;10.560;2023-07-16T11:12:09;32.60;64.60
26947;DHT22;14501;52.282;10.560;2023-07-16T11:14:35;32.30;62.50
26947;DHT22;14501;52.282;10.560;2023-07-16T11:17:07;32.20;66.00
26947;DHT22;14501;52.282;10.560;2023-07-16T11:19:34;32.20;63.70
26947;DHT22;14501;52.282;10.560;2023-07-16T11:22:01;32.10;64.90
26947;DHT22;14501;52.282;10.560;2023-07-16T11:24:28;31.20;63.60
26947;DHT22;14501;52.282;10.560;2023-07-16T11:26:54;31.20;64.20
26947;DHT22;14501;52.282;10.560;2023-07-16T11:29:23;31.10;67.90
26947;DHT22;14501;52.282;10.560;2023-07-16T11:31:53;31.10;68.90
26947;DHT22;14501;52.282;10.560;2023-07-16T11:34:21;31.00;63.40
26947;DHT22;14501;52.282;10.560;2023-07-16T11:36:48;30.90;65.70
26947;DHT22;14501;52.282;10.560;2023-07-16T11:39:14;31.20;67.00
26947;DHT22;14501;52.282;10.560;2023-07-16T11:41:40;31.20;67.30
26947;DHT22;14501;52.282;10.560;2023-07-16T11:44:07;31.30;71.10
26947;DHT22;14501;52.282;10.560;2023-07-16T11:46:33;31.40;67.10
26947;DHT22;14501;52.282;10.560;2023-07-16T11:49:02;31.00;67.80
26947;DHT22;14501;52.282;10.560;2023-07-16T11:51:29;31.10;68.10
26947;DHT22;14501;52.282;10.560;2023-07-16T11:53:56;31.00;68.40
26947;DHT22;14501;52.282;10.560;2023-07-16T11:56:22;31.00;69.10
26947;DHT22;14501;52.282;10.560;2023-07-16T11:58:49;31.30;68.30
26947;DHT22;14501;52.282;10.560;2023-07-16T12:01:15;31.20;68.00
26947;DHT22;14501;52.282;10.560;2023-07-16T12:03:41;30.90;64.90
26947;DHT22;14501;52.282;10.560;2023-07-16T12:06:07;30.30;68.40
26947;DHT22;14501;52.282;10.560;2023-07-16T12:08:33;30.50;70.10
26947;DHT22;14501;52.282;10.560;2023-07-16T12:10:59;30.70;70.50
26947;DHT22;14501;52.282;10.560;2023-07-16T12:13:24;30.80;66.90
26947;DHT22;14501;52.282;10.560;2023-07-16T12:15:50;31.00;69.00
26947;DHT22;14501;52.282;10.560;2023-07-16T12:18:15;30.90;68.40
26947;DHT22;14501;52.282;10.560;2023-07-16T12:20:41;30.70;67.10
26947;DHT22;14501;52.282;10.560;2023-07-16T12:23:06;29.60;69.10
26947;DHT22;14501;52.282;10.560;2023-07-16T12:25:32;30.00;67.60
26947;DHT22;14501;52.282;10.560;2023-07-16T12:27:58;29.60;68.60
26947;DHT22;14501;52.282;10.560;2023-07-16T12:30:24;29.80;69.70
26947;DHT22;14501;52.282;10.560;2023-07-16T12:32:50;29.70;71.90
26947;DHT22;14501;52.282;10.560;2023-07-16T12:35:16;29.40;69.70
26947;DHT22;14501;52.282;10.560;2023-07-16T12:37:41;29.40;69.10
26947;DHT22;14501;52.282;10.560;2023-07-16T12:40:07;29.90;71.20
26947;DHT22;14501;52.282;10.560;2023-07-16T12:42:33;30.20;72.80
26947;DHT22;14501;52.282;10.560;2023-07-16T12:44:59;30.40;68.70
26947;DHT22;14501;52.282;10.560;2023-07-16T12:47:24;30.50;67.10
26947;DHT22;14501;52.282;10.560;2023-07-16T12:49:50;29.90;64.40
26947;DHT22;14501;52.282;10.560;2023-07-16T12:52:15;29.60;67.70
26947;DHT22;14501;52.282;10.560;2023-07-16T12:54:41;29.10;71.50
26947;DHT22;14501;52.282;10.560;2023-07-16T12:57:07;28.90;69.70
26947;DHT22;14501;52.282;10.560;2023-07-16T12:59:32;28.50;67.60
26947;DHT22;14501;52.282;10.560;2023-07-16T13:01:58;28.50;68.30
26947;DHT22;14501;52.282;10.560;2023-07-16T13:04:23;28.50;71.00
26947;DHT22;14501;52.282;10.560;2023-07-16T13:06:49;28.50;70.50
26947;DHT22;14501;52.282;10.560;2023-07-16T13:11:42;28.40;70.60
26947;DHT22;14501;52.282;10.560;2023-07-16T13:14:08;28.30;69.90
26947;DHT22;14501;52.282;10.560;2023-07-16T13:16:33;28.30;70.80
26947;DHT22;14501;52.282;10.560;2023-07-16T13:18:59;29.10;69.20
26947;DHT22;14501;52.282;10.560;2023-07-16T13:21:25;28.90;68.20
26947;DHT22;14501;52.282;10.560;2023-07-16T13:23:50;29.10;68.40
26947;DHT22;14501;52.282;10.560;2023-07-16T13:26:16;29.30;70.40
26947;DHT22;14501;52.282;10.560;2023-07-16T13:28:41;29.20;69.00
26947;DHT22;14501;52.282;10.560;2023-07-16T13:31:07;28.80;66.40
26947;DHT22;14501;52.282;10.560;2023-07-16T13:33:35;28.50;69.50
26947;DHT22;14501;52.282;10.560;2023-07-16T13:36:01;28.40;70.40
26947;DHT22;14501;52.282;10.560;2023-07-16T13:38:30;28.50;70.70
26947;DHT22;14501;52.282;10.560;2023-07-16T13:40:56;28.50;73.30
26947;DHT22;14501;52.282;10.560;2023-07-16T13:43:21;28.50;71.40
26947;DHT22;14501;52.282;10.560;2023-07-16T13:45:47;28.50;69.70
26947;DHT22;14501;52.282;10.560;2023-07-16T13:48:12;28.50;68.80
26947;DHT22;14501;52.282;10.560;2023-07-16T13:50:38;28.80;69.90
26947;DHT22;14501;52.282;10.560;2023-07-16T13:53:03;28.80;69.30
26947;DHT22;14501;52.282;10.560;2023-07-16T13:55:29;28.90;69.70
26947;DHT22;14501;52.282;10.560;2023-07-16T13:57:55;28.90;67.80
26947;DHT22;14501;52.282;10.560;2023-07-16T14:00:23;29.10;70.50
26947;DHT22;14501;52.282;10.560;2023-07-16T14:02:49;29.10;68.50
26947;DHT22;14501;52.282;10.560;2023-07-16T14:05:14;29.20;68.80
26947;DHT22;14501;52.282;10.560;2023-07-16T14:07:40;28.90;69.40
26947;DHT22;14501;52.282;10.560;2023-07-16T14:10:06;28.40;71.90
26947;DHT22;14501;52.282;10.560;2023-07-16T14:12:32;28.20;71.90
26947;DHT22;14501;52.282;10.560;2023-07-16T14:14:59;27.90;69.70
26947;DHT22;14501;52.282;10.560;2023-07-16T14:17:24;27.80;69.60
26947;DHT22;14501;52.282;10.560;2023-07-16T14:19:50;28.00;68.50
26947;DHT22;14501;52.282;10.560;2023-07-16T14:22:16;28.10;70.00
26947;DHT22;14501;52.282;10.560;2023-07-16T14:24:42;28.20;70.80
26947;DHT22;14501;52.282;10.560;2023-07-16T14:27:07;28.60;71.10
26947;DHT22;14501;52.282;10.560;2023-07-16T14:29:34;28.90;70.40
26947;DHT22;14501;52.282;10.560;2023-07-16T14:32:00;28.90;69.40
26947;DHT22;14501;52.282;10.560;2023-07-16T14:34:26;29.00;68.20
26947;DHT22;14501;52.282;10.560;2023-07-16T14:36:52;29.00;69.00
26947;DHT22;14501;52.282;10.560;2023-07-16T14:39:18;29.10;68.30
26947;DHT22;14501;52.282;10.560;2023-07-16T14:41:44;29.10;67.60
26947;DHT22;14501;52.282;10.560;2023-07-16T14:44:10;29.00;69.80
26947;DHT22;14501;52.282;10.560;2023-07-16T14:46:35;28.90;68.20
26947;DHT22;14501;52.282;10.560;2023-07-16T14:49:02;28.80;67.30
26947;DHT22;14501;52.282;10.560;2023-07-16T14:51:28;29.00;67.80
26947;DHT22;14501;52.282;10.560;2023-07-16T14:53:54;29.10;67.10
26947;DHT22;14501;52.282;10.560;2023-07-16T14:56:19;29.10;68.60
26947;DHT22;14501;52.282;10.560;2023-07-16T14:58:45;29.10;68.30
26947;DHT22;14501;52.282;10.560;2023-07-16T15:01:10;29.00;66.70
26947;DHT22;14501;52.282;10.560;2023-07-16T15:06:03;28.70;66.20
26947;DHT22;14501;52.282;10.560;2023-07-16T15:08:29;28.60;67.30
26947;DHT22;14501;52.282;10.560;2023-07-16T15:10:56;28.70;67.80
26947;DHT22;14501;52.282;10.560;2023-07-16T15:13:22;28.60;68.40
26947;DHT22;14501;52.282;10.560;2023-07-16T15:15:51;28.60;67.20
26947;DHT22;14501;52.282;10.560;2023-07-16T15:18:17;28.50;68.30
26947;DHT22;14501;52.282;10.560;2023-07-16T15:20:43;28.30;67.60
26947;DHT22;14501;52.282;10.560;2023-07-16T15:23:08;28.00;68.20
26947;DHT22;14501;52.282;10.560;2023-07-16T15:25:34;27.70;70.10
26947;DHT22;14501;52.282;10.560;2023-07-16T15:28:00;27.40;70.40
26947;DHT22;14501;52.282;10.560;2023-07-16T15:30:26;27.20;72.80
26947;DHT22;14501;52.282;10.560;2023-07-16T15:32:52;27.20;74.80
26947;DHT22;14501;52.282;10.560;2023-07-16T15:35:17;27.20;71.00
26947;DHT22;14501;52.282;10.560;2023-07-16T15:37:43;27.20;72.00
26947;DHT22;14501;52.282;10.560;2023-07-16T15:40:15;27.00;72.40
26947;DHT22;14501;52.282;10.560;2023-07-16T15:42:41;27.00;72.50
26947;DHT22;14501;52.282;10.560;2023-07-16T15:45:11;27.10;74.10
26947;DHT22;14501;52.282;10.560;2023-07-16T15:47:42;27.10;74.80
26947;DHT22;14501;52.282;10.560;2023-07-16T15:50:08;27.30;72.40